Flugplatz St. Michaelisdonn

Für EDXM sind keine METAR/TAF Berichte vorhanden.
Es werden die Flugwettermeldungen vom Flugplatz Nordholz Airport in 39 km Entfernung angezeigt.

Bericht für ETMN

vom 25.08. um 19:20 UTC

Wind 5 kt aus 40°

Sichtweite 10 km oder mehr

gering bewölkt in 30000 ft

Temperatur 22.0°C

Taupunkt 17.0°C

Luftfeuchtigkeit 73%

Luftdruck 1020 hPa

ETMN 251920Z 04005KT 9999 FEW300 22/17 Q1020 BLU+
Keine Prognose (TAF) verfügbar.
Impressum